sensor_id;sensor_type;location;lat;lon;timestamp;P1;durP1;ratioP1;P2;durP2;ratioP2
43744;SDS011;29359;53.048;8.732;2023-09-19T00:01:41;2.95;;;1.75;;
43744;SDS011;29359;53.048;8.732;2023-09-19T00:03:43;4.63;;;2.00;;
43744;SDS011;29359;53.048;8.732;2023-09-19T00:05:46;3.85;;;2.15;;
43744;SDS011;29359;53.048;8.732;2023-09-19T00:07:49;4.72;;;2.17;;
43744;SDS011;29359;53.048;8.732;2023-09-19T00:09:52;4.35;;;2.38;;
43744;SDS011;29359;53.048;8.732;2023-09-19T00:11:54;6.20;;;1.95;;
43744;SDS011;29359;53.048;8.732;2023-09-19T00:13:55;9.73;;;2.13;;
43744;SDS011;29359;53.048;8.732;2023-09-19T00:16:00;4.78;;;1.77;;
43744;SDS011;29359;53.048;8.732;2023-09-19T00:18:02;4.13;;;1.60;;
43744;SDS011;29359;53.048;8.732;2023-09-19T00:20:06;4.63;;;1.90;;
43744;SDS011;29359;53.048;8.732;2023-09-19T00:22:08;6.80;;;2.08;;
43744;SDS011;29359;53.048;8.732;2023-09-19T00:24:10;7.22;;;2.25;;
43744;SDS011;29359;53.048;8.732;2023-09-19T00:26:13;4.05;;;1.95;;
43744;SDS011;29359;53.048;8.732;2023-09-19T00:28:15;3.85;;;1.80;;
43744;SDS011;29359;53.048;8.732;2023-09-19T00:30:18;5.00;;;1.75;;
43744;SDS011;29359;53.048;8.732;2023-09-19T00:32:25;7.22;;;2.05;;
43744;SDS011;29359;53.048;8.732;2023-09-19T00:34:33;4.95;;;1.77;;
43744;SDS011;29359;53.048;8.732;2023-09-19T00:36:36;2.70;;;1.50;;
43744;SDS011;29359;53.048;8.732;2023-09-19T00:38:40;6.90;;;2.00;;
43744;SDS011;29359;53.048;8.732;2023-09-19T00:40:46;4.15;;;1.88;;
43744;SDS011;29359;53.048;8.732;2023-09-19T00:42:48;7.82;;;1.92;;
43744;SDS011;29359;53.048;8.732;2023-09-19T00:44:50;3.58;;;1.80;;
43744;SDS011;29359;53.048;8.732;2023-09-19T00:46:52;5.53;;;1.73;;
43744;SDS011;29359;53.048;8.732;2023-09-19T00:48:54;6.22;;;2.20;;
43744;SDS011;29359;53.048;8.732;2023-09-19T00:50:59;6.13;;;1.92;;
43744;SDS011;29359;53.048;8.732;2023-09-19T00:53:06;5.88;;;1.80;;
43744;SDS011;29359;53.048;8.732;2023-09-19T00:55:09;5.15;;;2.00;;
43744;SDS011;29359;53.048;8.732;2023-09-19T00:57:13;4.35;;;1.90;;
43744;SDS011;29359;53.048;8.732;2023-09-19T00:59:16;7.32;;;2.15;;
43744;SDS011;29359;53.048;8.732;2023-09-19T01:01:18;7.70;;;1.83;;
43744;SDS011;29359;53.048;8.732;2023-09-19T01:03:20;8.07;;;2.03;;
43744;SDS011;29359;53.048;8.732;2023-09-19T01:05:24;3.53;;;1.75;;
43744;SDS011;29359;53.048;8.732;2023-09-19T01:07:27;4.00;;;1.77;;
43744;SDS011;29359;53.048;8.732;2023-09-19T01:09:31;7.05;;;1.88;;
43744;SDS011;29359;53.048;8.732;2023-09-19T01:11:38;8.18;;;1.73;;
43744;SDS011;29359;53.048;8.732;2023-09-19T01:13:55;12.38;;;2.03;;
43744;SDS011;29359;53.048;8.732;2023-09-19T01:16:16;7.72;;;1.90;;
43744;SDS011;29359;53.048;8.732;2023-09-19T01:18:40;5.50;;;2.08;;
43744;SDS011;29359;53.048;8.732;2023-09-19T01:20:57;8.55;;;1.77;;
43744;SDS011;29359;53.048;8.732;2023-09-19T01:23:21;4.30;;;1.23;;
43744;SDS011;29359;53.048;8.732;2023-09-19T01:30:11;2.15;;;1.00;;
43744;SDS011;29359;53.048;8.732;2023-09-19T01:32:24;4.78;;;0.80;;
43744;SDS011;29359;53.048;8.732;2023-09-19T01:34:27;3.58;;;1.02;;
43744;SDS011;29359;53.048;8.732;2023-09-19T01:36:44;3.20;;;1.13;;
43744;SDS011;29359;53.048;8.732;2023-09-19T01:38:47;6.25;;;1.10;;
43744;SDS011;29359;53.048;8.732;2023-09-19T01:40:54;2.80;;;0.90;;
43744;SDS011;29359;53.048;8.732;2023-09-19T01:47:41;1.77;;;0.90;;
43744;SDS011;29359;53.048;8.732;2023-09-19T01:49:55;2.60;;;1.10;;
43744;SDS011;29359;53.048;8.732;2023-09-19T01:52:11;2.83;;;0.80;;
43744;SDS011;29359;53.048;8.732;2023-09-19T01:54:24;2.75;;;1.23;;
43744;SDS011;29359;53.048;8.732;2023-09-19T01:56:30;2.92;;;0.82;;
43744;SDS011;29359;53.048;8.732;2023-09-19T01:58:53;2.60;;;0.80;;
43744;SDS011;29359;53.048;8.732;2023-09-19T02:01:00;3.47;;;0.70;;
43744;SDS011;29359;53.048;8.732;2023-09-19T02:03:05;1.35;;;1.02;;
43744;SDS011;29359;53.048;8.732;2023-09-19T02:05:07;2.47;;;0.80;;
43744;SDS011;29359;53.048;8.732;2023-09-19T02:07:10;2.38;;;0.90;;
43744;SDS011;29359;53.048;8.732;2023-09-19T02:09:12;4.43;;;0.90;;
43744;SDS011;29359;53.048;8.732;2023-09-19T02:11:13;1.80;;;0.80;;
43744;SDS011;29359;53.048;8.732;2023-09-19T02:13:17;2.03;;;0.90;;
43744;SDS011;29359;53.048;8.732;2023-09-19T02:15:20;5.38;;;0.90;;
43744;SDS011;29359;53.048;8.732;2023-09-19T02:17:23;4.43;;;1.48;;
43744;SDS011;29359;53.048;8.732;2023-09-19T02:19:27;4.15;;;0.85;;
43744;SDS011;29359;53.048;8.732;2023-09-19T02:21:29;3.47;;;0.70;;
43744;SDS011;29359;53.048;8.732;2023-09-19T02:23:32;5.38;;;0.93;;
43744;SDS011;29359;53.048;8.732;2023-09-19T02:25:34;3.42;;;1.00;;
43744;SDS011;29359;53.048;8.732;2023-09-19T02:27:40;2.28;;;0.73;;
43744;SDS011;29359;53.048;8.732;2023-09-19T02:29:43;1.52;;;0.70;;
43744;SDS011;29359;53.048;8.732;2023-09-19T02:31:45;3.63;;;0.82;;
43744;SDS011;29359;53.048;8.732;2023-09-19T02:33:47;2.95;;;0.90;;
43744;SDS011;29359;53.048;8.732;2023-09-19T02:35:49;8.90;;;1.73;;
43744;SDS011;29359;53.048;8.732;2023-09-19T02:37:51;3.00;;;0.95;;
43744;SDS011;29359;53.048;8.732;2023-09-19T02:39:53;2.78;;;0.70;;
43744;SDS011;29359;53.048;8.732;2023-09-19T02:41:55;5.13;;;0.95;;
43744;SDS011;29359;53.048;8.732;2023-09-19T02:43:57;5.45;;;1.08;;
43744;SDS011;29359;53.048;8.732;2023-09-19T02:45:59;3.38;;;1.05;;
43744;SDS011;29359;53.048;8.732;2023-09-19T02:48:01;1.30;;;0.60;;
43744;SDS011;29359;53.048;8.732;2023-09-19T02:50:04;7.28;;;1.10;;
43744;SDS011;29359;53.048;8.732;2023-09-19T02:52:06;3.08;;;1.20;;
43744;SDS011;29359;53.048;8.732;2023-09-19T02:54:09;6.70;;;1.13;;
43744;SDS011;29359;53.048;8.732;2023-09-19T02:56:11;3.05;;;1.10;;
43744;SDS011;29359;53.048;8.732;2023-09-19T02:58:15;7.38;;;0.98;;
43744;SDS011;29359;53.048;8.732;2023-09-19T03:00:18;2.40;;;0.90;;
43744;SDS011;29359;53.048;8.732;2023-09-19T03:02:23;9.18;;;1.10;;
43744;SDS011;29359;53.048;8.732;2023-09-19T03:04:25;4.15;;;1.40;;
43744;SDS011;29359;53.048;8.732;2023-09-19T03:06:28;1.85;;;1.02;;
43744;SDS011;29359;53.048;8.732;2023-09-19T03:08:32;3.72;;;1.17;;
43744;SDS011;29359;53.048;8.732;2023-09-19T03:10:37;11.95;;;1.20;;
43744;SDS011;29359;53.048;8.732;2023-09-19T03:12:39;3.58;;;0.95;;
43744;SDS011;29359;53.048;8.732;2023-09-19T03:14:41;3.28;;;1.00;;
43744;SDS011;29359;53.048;8.732;2023-09-19T03:16:43;4.80;;;1.17;;
43744;SDS011;29359;53.048;8.732;2023-09-19T03:18:46;4.05;;;1.58;;
43744;SDS011;29359;53.048;8.732;2023-09-19T03:20:52;6.47;;;1.30;;
43744;SDS011;29359;53.048;8.732;2023-09-19T03:22:57;2.38;;;1.10;;
43744;SDS011;29359;53.048;8.732;2023-09-19T03:24:59;6.47;;;1.58;;
43744;SDS011;29359;53.048;8.732;2023-09-19T03:27:02;2.58;;;0.90;;
43744;SDS011;29359;53.048;8.732;2023-09-19T03:29:05;4.47;;;1.63;;
43744;SDS011;29359;53.048;8.732;2023-09-19T03:31:11;5.07;;;1.10;;
43744;SDS011;29359;53.048;8.732;2023-09-19T03:33:13;16.00;;;1.67;;
43744;SDS011;29359;53.048;8.732;2023-09-19T03:35:15;7.53;;;2.00;;
43744;SDS011;29359;53.048;8.732;2023-09-19T03:37:18;5.20;;;1.30;;
43744;SDS011;29359;53.048;8.732;2023-09-19T03:39:20;4.70;;;1.20;;
43744;SDS011;29359;53.048;8.732;2023-09-19T03:41:22;6.95;;;1.75;;
43744;SDS011;29359;53.048;8.732;2023-09-19T03:43:24;5.45;;;1.20;;
43744;SDS011;29359;53.048;8.732;2023-09-19T03:45:26;5.45;;;1.40;;
43744;SDS011;29359;53.048;8.732;2023-09-19T03:47:29;6.45;;;1.50;;
43744;SDS011;29359;53.048;8.732;2023-09-19T03:49:31;5.97;;;1.20;;
43744;SDS011;29359;53.048;8.732;2023-09-19T03:51:32;6.35;;;1.33;;
43744;SDS011;29359;53.048;8.732;2023-09-19T03:53:35;5.03;;;1.50;;
43744;SDS011;29359;53.048;8.732;2023-09-19T03:55:37;8.60;;;1.25;;
43744;SDS011;29359;53.048;8.732;2023-09-19T03:57:40;7.22;;;1.52;;
43744;SDS011;29359;53.048;8.732;2023-09-19T03:59:42;10.63;;;1.27;;
43744;SDS011;29359;53.048;8.732;2023-09-19T04:01:44;6.00;;;1.40;;
43744;SDS011;29359;53.048;8.732;2023-09-19T04:03:46;4.97;;;1.10;;
43744;SDS011;29359;53.048;8.732;2023-09-19T04:05:49;5.72;;;1.38;;
43744;SDS011;29359;53.048;8.732;2023-09-19T04:07:51;8.20;;;1.27;;
43744;SDS011;29359;53.048;8.732;2023-09-19T04:09:54;4.78;;;1.50;;
43744;SDS011;29359;53.048;8.732;2023-09-19T04:11:56;7.72;;;2.30;;
43744;SDS011;29359;53.048;8.732;2023-09-19T04:13:58;6.25;;;1.70;;
43744;SDS011;29359;53.048;8.732;2023-09-19T04:16:00;19.02;;;2.00;;
43744;SDS011;29359;53.048;8.732;2023-09-19T04:18:02;8.75;;;1.27;;
43744;SDS011;29359;53.048;8.732;2023-09-19T04:20:05;5.20;;;2.22;;
43744;SDS011;29359;53.048;8.732;2023-09-19T04:22:09;6.03;;;1.77;;
43744;SDS011;29359;53.048;8.732;2023-09-19T04:24:10;5.15;;;1.50;;
43744;SDS011;29359;53.048;8.732;2023-09-19T04:26:14;5.10;;;1.30;;
43744;SDS011;29359;53.048;8.732;2023-09-19T04:28:18;7.22;;;1.58;;
43744;SDS011;29359;53.048;8.732;2023-09-19T04:30:20;8.07;;;1.70;;
43744;SDS011;29359;53.048;8.732;2023-09-19T04:32:22;7.75;;;1.23;;
43744;SDS011;29359;53.048;8.732;2023-09-19T04:34:24;11.15;;;1.60;;
43744;SDS011;29359;53.048;8.732;2023-09-19T04:36:26;8.40;;;1.77;;
43744;SDS011;29359;53.048;8.732;2023-09-19T04:38:36;7.25;;;1.50;;
43744;SDS011;29359;53.048;8.732;2023-09-19T04:40:38;4.72;;;1.80;;
43744;SDS011;29359;53.048;8.732;2023-09-19T04:42:41;4.80;;;1.55;;
43744;SDS011;29359;53.048;8.732;2023-09-19T04:44:43;7.65;;;1.60;;
43744;SDS011;29359;53.048;8.732;2023-09-19T04:46:45;6.60;;;1.52;;
43744;SDS011;29359;53.048;8.732;2023-09-19T04:48:50;4.03;;;1.20;;
43744;SDS011;29359;53.048;8.732;2023-09-19T04:50:52;12.18;;;2.03;;
43744;SDS011;29359;53.048;8.732;2023-09-19T04:52:54;11.38;;;1.90;;
43744;SDS011;29359;53.048;8.732;2023-09-19T04:54:55;2.88;;;1.30;;
43744;SDS011;29359;53.048;8.732;2023-09-19T04:56:57;8.40;;;2.08;;
43744;SDS011;29359;53.048;8.732;2023-09-19T04:58:59;9.98;;;1.70;;
43744;SDS011;29359;53.048;8.732;2023-09-19T05:01:01;11.63;;;2.03;;
43744;SDS011;29359;53.048;8.732;2023-09-19T05:03:04;11.07;;;1.83;;
43744;SDS011;29359;53.048;8.732;2023-09-19T05:05:08;7.13;;;1.63;;
43744;SDS011;29359;53.048;8.732;2023-09-19T05:07:20;12.40;;;2.25;;
43744;SDS011;29359;53.048;8.732;2023-09-19T05:09:25;6.25;;;1.63;;
43744;SDS011;29359;53.048;8.732;2023-09-19T05:11:26;9.55;;;2.03;;
43744;SDS011;29359;53.048;8.732;2023-09-19T05:13:28;8.68;;;1.75;;
43744;SDS011;29359;53.048;8.732;2023-09-19T05:15:30;13.82;;;2.10;;
43744;SDS011;29359;53.048;8.732;2023-09-19T05:17:33;8.60;;;1.98;;
43744;SDS011;29359;53.048;8.732;2023-09-19T05:19:36;7.35;;;2.50;;
43744;SDS011;29359;53.048;8.732;2023-09-19T05:21:38;6.72;;;2.17;;
43744;SDS011;29359;53.048;8.732;2023-09-19T05:23:42;12.23;;;2.28;;
43744;SDS011;29359;53.048;8.732;2023-09-19T05:25:44;13.57;;;2.33;;
43744;SDS011;29359;53.048;8.732;2023-09-19T05:27:46;11.13;;;2.00;;
43744;SDS011;29359;53.048;8.732;2023-09-19T05:29:48;10.15;;;2.25;;
43744;SDS011;29359;53.048;8.732;2023-09-19T05:31:52;9.20;;;1.92;;
43744;SDS011;29359;53.048;8.732;2023-09-19T05:33:56;11.13;;;2.00;;
43744;SDS011;29359;53.048;8.732;2023-09-19T05:35:58;5.97;;;1.55;;
43744;SDS011;29359;53.048;8.732;2023-09-19T05:38:00;8.70;;;1.85;;
43744;SDS011;29359;53.048;8.732;2023-09-19T05:40:02;7.60;;;2.03;;
43744;SDS011;29359;53.048;8.732;2023-09-19T05:42:14;7.95;;;1.95;;
43744;SDS011;29359;53.048;8.732;2023-09-19T05:44:16;7.60;;;1.80;;
43744;SDS011;29359;53.048;8.732;2023-09-19T05:46:17;11.75;;;2.53;;
43744;SDS011;29359;53.048;8.732;2023-09-19T05:48:19;11.90;;;1.67;;
43744;SDS011;29359;53.048;8.732;2023-09-19T05:50:22;5.75;;;1.90;;
43744;SDS011;29359;53.048;8.732;2023-09-19T05:52:26;12.25;;;2.45;;
43744;SDS011;29359;53.048;8.732;2023-09-19T05:54:28;11.10;;;2.85;;
43744;SDS011;29359;53.048;8.732;2023-09-19T05:56:30;8.18;;;1.75;;
43744;SDS011;29359;53.048;8.732;2023-09-19T05:58:32;14.57;;;2.15;;
43744;SDS011;29359;53.048;8.732;2023-09-19T06:00:34;17.45;;;2.38;;
43744;SDS011;29359;53.048;8.732;2023-09-19T06:02:39;9.35;;;1.80;;
43744;SDS011;29359;53.048;8.732;2023-09-19T06:04:41;12.38;;;2.78;;
43744;SDS011;29359;53.048;8.732;2023-09-19T06:06:43;8.07;;;2.15;;
43744;SDS011;29359;53.048;8.732;2023-09-19T06:08:46;10.02;;;1.98;;
43744;SDS011;29359;53.048;8.732;2023-09-19T06:10:48;11.07;;;2.25;;
43744;SDS011;29359;53.048;8.732;2023-09-19T06:12:50;11.25;;;2.53;;
43744;SDS011;29359;53.048;8.732;2023-09-19T06:14:52;16.75;;;2.75;;
43744;SDS011;29359;53.048;8.732;2023-09-19T06:16:54;8.07;;;1.65;;
43744;SDS011;29359;53.048;8.732;2023-09-19T06:18:56;8.93;;;1.85;;
43744;SDS011;29359;53.048;8.732;2023-09-19T06:20:58;12.07;;;2.53;;
43744;SDS011;29359;53.048;8.732;2023-09-19T06:23:00;12.23;;;1.90;;
43744;SDS011;29359;53.048;8.732;2023-09-19T06:25:11;14.23;;;2.40;;
43744;SDS011;29359;53.048;8.732;2023-09-19T06:27:21;10.52;;;2.60;;
43744;SDS011;29359;53.048;8.732;2023-09-19T06:29:23;14.05;;;2.78;;
43744;SDS011;29359;53.048;8.732;2023-09-19T06:31:26;9.88;;;2.45;;
43744;SDS011;29359;53.048;8.732;2023-09-19T06:33:28;13.05;;;2.78;;
43744;SDS011;29359;53.048;8.732;2023-09-19T06:35:33;14.23;;;2.22;;
43744;SDS011;29359;53.048;8.732;2023-09-19T06:37:35;11.75;;;2.45;;
43744;SDS011;29359;53.048;8.732;2023-09-19T06:39:40;8.80;;;2.08;;
43744;SDS011;29359;53.048;8.732;2023-09-19T06:41:43;8.18;;;1.83;;
43744;SDS011;29359;53.048;8.732;2023-09-19T06:43:46;14.48;;;2.28;;
43744;SDS011;29359;53.048;8.732;2023-09-19T06:45:48;8.55;;;1.90;;
43744;SDS011;29359;53.048;8.732;2023-09-19T06:47:52;9.63;;;2.00;;
43744;SDS011;29359;53.048;8.732;2023-09-19T06:49:55;14.00;;;2.40;;
43744;SDS011;29359;53.048;8.732;2023-09-19T06:52:03;6.90;;;2.22;;
43744;SDS011;29359;53.048;8.732;2023-09-19T06:54:06;7.97;;;1.75;;
43744;SDS011;29359;53.048;8.732;2023-09-19T06:56:07;8.77;;;2.65;;
43744;SDS011;29359;53.048;8.732;2023-09-19T06:58:09;9.95;;;2.28;;
43744;SDS011;29359;53.048;8.732;2023-09-19T07:00:12;13.18;;;2.40;;
43744;SDS011;29359;53.048;8.732;2023-09-19T07:02:20;13.13;;;2.20;;
43744;SDS011;29359;53.048;8.732;2023-09-19T07:04:23;11.30;;;2.42;;
43744;SDS011;29359;53.048;8.732;2023-09-19T07:06:26;10.57;;;2.10;;
43744;SDS011;29359;53.048;8.732;2023-09-19T07:08:28;6.55;;;2.05;;
43744;SDS011;29359;53.048;8.732;2023-09-19T07:10:29;9.73;;;2.22;;
43744;SDS011;29359;53.048;8.732;2023-09-19T07:12:32;6.60;;;1.52;;
43744;SDS011;29359;53.048;8.732;2023-09-19T07:14:36;13.02;;;2.22;;
43744;SDS011;29359;53.048;8.732;2023-09-19T07:16:38;14.60;;;1.80;;
43744;SDS011;29359;53.048;8.732;2023-09-19T07:18:41;8.77;;;2.53;;
43744;SDS011;29359;53.048;8.732;2023-09-19T07:20:45;11.52;;;3.00;;
43744;SDS011;29359;53.048;8.732;2023-09-19T07:22:51;11.63;;;2.00;;
43744;SDS011;29359;53.048;8.732;2023-09-19T07:24:52;10.52;;;2.55;;
43744;SDS011;29359;53.048;8.732;2023-09-19T07:26:54;11.82;;;2.38;;
43744;SDS011;29359;53.048;8.732;2023-09-19T07:28:56;11.63;;;2.05;;
43744;SDS011;29359;53.048;8.732;2023-09-19T07:31:01;13.98;;;2.75;;
43744;SDS011;29359;53.048;8.732;2023-09-19T07:33:04;9.65;;;1.80;;
43744;SDS011;29359;53.048;8.732;2023-09-19T07:35:07;10.88;;;1.70;;
43744;SDS011;29359;53.048;8.732;2023-09-19T07:37:11;6.45;;;1.50;;
43744;SDS011;29359;53.048;8.732;2023-09-19T07:39:14;11.48;;;1.77;;
43744;SDS011;29359;53.048;8.732;2023-09-19T07:41:23;10.00;;;2.17;;
43744;SDS011;29359;53.048;8.732;2023-09-19T07:43:25;8.52;;;1.63;;
43744;SDS011;29359;53.048;8.732;2023-09-19T07:45:28;9.15;;;2.05;;
43744;SDS011;29359;53.048;8.732;2023-09-19T07:47:31;10.45;;;2.03;;
43744;SDS011;29359;53.048;8.732;2023-09-19T07:49:34;10.52;;;2.00;;
43744;SDS011;29359;53.048;8.732;2023-09-19T07:51:36;8.52;;;1.95;;
43744;SDS011;29359;53.048;8.732;2023-09-19T07:53:37;11.48;;;1.75;;
43744;SDS011;29359;53.048;8.732;2023-09-19T07:55:40;13.57;;;2.10;;
43744;SDS011;29359;53.048;8.732;2023-09-19T07:57:44;5.65;;;1.50;;
43744;SDS011;29359;53.048;8.732;2023-09-19T07:59:45;10.07;;;1.70;;
43744;SDS011;29359;53.048;8.732;2023-09-19T08:01:47;9.50;;;2.15;;
43744;SDS011;29359;53.048;8.732;2023-09-19T08:03:50;10.70;;;2.25;;
43744;SDS011;29359;53.048;8.732;2023-09-19T08:05:52;7.32;;;1.70;;
43744;SDS011;29359;53.048;8.732;2023-09-19T08:07:53;7.00;;;1.48;;
43744;SDS011;29359;53.048;8.732;2023-09-19T08:09:58;9.70;;;1.77;;
43744;SDS011;29359;53.048;8.732;2023-09-19T08:12:00;9.30;;;2.13;;
43744;SDS011;29359;53.048;8.732;2023-09-19T08:14:06;6.90;;;1.75;;
43744;SDS011;29359;53.048;8.732;2023-09-19T08:16:09;12.02;;;2.08;;
43744;SDS011;29359;53.048;8.732;2023-09-19T08:18:12;10.82;;;1.90;;
43744;SDS011;29359;53.048;8.732;2023-09-19T08:20:14;8.70;;;1.95;;
43744;SDS011;29359;53.048;8.732;2023-09-19T08:22:20;7.85;;;1.63;;
43744;SDS011;29359;53.048;8.732;2023-09-19T08:24:28;8.95;;;1.60;;
43744;SDS011;29359;53.048;8.732;2023-09-19T08:26:31;6.85;;;1.48;;
43744;SDS011;29359;53.048;8.732;2023-09-19T08:28:34;7.43;;;1.55;;
43744;SDS011;29359;53.048;8.732;2023-09-19T08:30:36;9.30;;;2.20;;
43744;SDS011;29359;53.048;8.732;2023-09-19T08:32:39;5.60;;;1.73;;
43744;SDS011;29359;53.048;8.732;2023-09-19T08:34:43;9.57;;;1.80;;
43744;SDS011;29359;53.048;8.732;2023-09-19T08:36:45;6.80;;;1.45;;
43744;SDS011;29359;53.048;8.732;2023-09-19T08:38:49;16.90;;;2.65;;
43744;SDS011;29359;53.048;8.732;2023-09-19T08:40:51;4.63;;;1.65;;
43744;SDS011;29359;53.048;8.732;2023-09-19T08:42:56;10.80;;;1.50;;
43744;SDS011;29359;53.048;8.732;2023-09-19T08:44:58;8.73;;;2.05;;
43744;SDS011;29359;53.048;8.732;2023-09-19T08:47:11;6.30;;;1.77;;
43744;SDS011;29359;53.048;8.732;2023-09-19T08:49:24;7.47;;;1.85;;
43744;SDS011;29359;53.048;8.732;2023-09-19T08:51:45;7.43;;;1.85;;
43744;SDS011;29359;53.048;8.732;2023-09-19T08:56:06;17.50;;;2.25;;
43744;SDS011;29359;53.048;8.732;2023-09-19T08:58:11;7.18;;;1.55;;
43744;SDS011;29359;53.048;8.732;2023-09-19T09:00:20;8.85;;;2.08;;
43744;SDS011;29359;53.048;8.732;2023-09-19T09:02:24;8.55;;;1.65;;
43744;SDS011;29359;53.048;8.732;2023-09-19T09:04:27;8.57;;;1.67;;
43744;SDS011;29359;53.048;8.732;2023-09-19T09:06:29;5.00;;;1.45;;
43744;SDS011;29359;53.048;8.732;2023-09-19T09:08:34;13.30;;;2.05;;
43744;SDS011;29359;53.048;8.732;2023-09-19T09:10:37;9.25;;;1.80;;
43744;SDS011;29359;53.048;8.732;2023-09-19T09:12:39;8.18;;;1.73;;
43744;SDS011;29359;53.048;8.732;2023-09-19T09:14:46;4.78;;;1.63;;
43744;SDS011;29359;53.048;8.732;2023-09-19T09:16:51;6.18;;;1.65;;
43744;SDS011;29359;53.048;8.732;2023-09-19T09:18:58;7.75;;;1.40;;
43744;SDS011;29359;53.048;8.732;2023-09-19T09:21:00;6.10;;;1.80;;
43744;SDS011;29359;53.048;8.732;2023-09-19T09:23:01;8.20;;;1.60;;
43744;SDS011;29359;53.048;8.732;2023-09-19T09:25:05;6.40;;;1.40;;
43744;SDS011;29359;53.048;8.732;2023-09-19T09:27:07;10.25;;;2.20;;
43744;SDS011;29359;53.048;8.732;2023-09-19T09:29:12;6.55;;;1.63;;
43744;SDS011;29359;53.048;8.732;2023-09-19T09:31:22;8.55;;;2.08;;
43744;SDS011;29359;53.048;8.732;2023-09-19T09:33:25;7.97;;;1.55;;
43744;SDS011;29359;53.048;8.732;2023-09-19T09:35:27;13.80;;;1.85;;
43744;SDS011;29359;53.048;8.732;2023-09-19T09:37:28;7.53;;;1.45;;
43744;SDS011;29359;53.048;8.732;2023-09-19T09:39:32;7.80;;;1.73;;
43744;SDS011;29359;53.048;8.732;2023-09-19T09:41:36;6.82;;;2.03;;
43744;SDS011;29359;53.048;8.732;2023-09-19T09:43:41;6.90;;;1.40;;
43744;SDS011;29359;53.048;8.732;2023-09-19T09:45:50;5.22;;;1.63;;
43744;SDS011;29359;53.048;8.732;2023-09-19T09:48:28;9.63;;;1.85;;
43744;SDS011;29359;53.048;8.732;2023-09-19T09:50:35;11.32;;;1.98;;
43744;SDS011;29359;53.048;8.732;2023-09-19T09:52:46;8.07;;;1.65;;
43744;SDS011;29359;53.048;8.732;2023-09-19T09:54:58;8.88;;;1.27;;
43744;SDS011;29359;53.048;8.732;2023-09-19T09:57:04;6.95;;;1.88;;
43744;SDS011;29359;53.048;8.732;2023-09-19T09:59:18;5.03;;;1.38;;
43744;SDS011;29359;53.048;8.732;2023-09-19T10:01:22;7.28;;;1.52;;
43744;SDS011;29359;53.048;8.732;2023-09-19T10:03:32;7.95;;;1.90;;
43744;SDS011;29359;53.048;8.732;2023-09-19T10:05:35;8.85;;;1.48;;
43744;SDS011;29359;53.048;8.732;2023-09-19T10:07:45;7.13;;;1.50;;
43744;SDS011;29359;53.048;8.732;2023-09-19T10:10:06;6.03;;;1.67;;
43744;SDS011;29359;53.048;8.732;2023-09-19T10:12:28;5.68;;;1.30;;
43744;SDS011;29359;53.048;8.732;2023-09-19T10:14:30;8.82;;;2.17;;
43744;SDS011;29359;53.048;8.732;2023-09-19T10:16:36;8.00;;;1.50;;
43744;SDS011;29359;53.048;8.732;2023-09-19T10:18:42;13.20;;;1.65;;
43744;SDS011;29359;53.048;8.732;2023-09-19T10:20:46;7.28;;;1.90;;
43744;SDS011;29359;53.048;8.732;2023-09-19T10:22:50;11.63;;;2.08;;
43744;SDS011;29359;53.048;8.732;2023-09-19T10:24:59;7.13;;;1.60;;
43744;SDS011;29359;53.048;8.732;2023-09-19T10:27:04;7.80;;;1.42;;
43744;SDS011;29359;53.048;8.732;2023-09-19T10:29:10;7.93;;;2.20;;
43744;SDS011;29359;53.048;8.732;2023-09-19T10:31:18;7.47;;;1.80;;
43744;SDS011;29359;53.048;8.732;2023-09-19T10:33:23;10.63;;;1.85;;
43744;SDS011;29359;53.048;8.732;2023-09-19T10:35:32;7.70;;;2.33;;
43744;SDS011;29359;53.048;8.732;2023-09-19T10:37:34;10.93;;;2.33;;
43744;SDS011;29359;53.048;8.732;2023-09-19T10:39:39;9.35;;;2.08;;
43744;SDS011;29359;53.048;8.732;2023-09-19T10:41:42;6.70;;;1.80;;
43744;SDS011;29359;53.048;8.732;2023-09-19T10:43:46;13.07;;;2.58;;
43744;SDS011;29359;53.048;8.732;2023-09-19T10:45:50;10.02;;;1.85;;
43744;SDS011;29359;53.048;8.732;2023-09-19T10:47:54;10.05;;;1.83;;
43744;SDS011;29359;53.048;8.732;2023-09-19T10:49:58;3.70;;;1.60;;
43744;SDS011;29359;53.048;8.732;2023-09-19T10:51:59;6.70;;;1.52;;
43744;SDS011;29359;53.048;8.732;2023-09-19T10:54:10;9.02;;;2.28;;
43744;SDS011;29359;53.048;8.732;2023-09-19T10:56:16;6.80;;;1.77;;
43744;SDS011;29359;53.048;8.732;2023-09-19T10:58:29;9.18;;;2.42;;
43744;SDS011;29359;53.048;8.732;2023-09-19T11:00:52;8.82;;;2.30;;
43744;SDS011;29359;53.048;8.732;2023-09-19T11:05:20;8.43;;;2.15;;
43744;SDS011;29359;53.048;8.732;2023-09-19T11:07:22;7.45;;;1.70;;
43744;SDS011;29359;53.048;8.732;2023-09-19T11:09:42;7.90;;;2.00;;
43744;SDS011;29359;53.048;8.732;2023-09-19T11:11:49;7.88;;;2.10;;
43744;SDS011;29359;53.048;8.732;2023-09-19T11:16:21;9.05;;;1.98;;
43744;SDS011;29359;53.048;8.732;2023-09-19T11:20:42;5.47;;;1.40;;
43744;SDS011;29359;53.048;8.732;2023-09-19T11:25:25;12.13;;;2.17;;
43744;SDS011;29359;53.048;8.732;2023-09-19T11:27:36;8.00;;;1.85;;
43744;SDS011;29359;53.048;8.732;2023-09-19T11:30:25;10.43;;;1.70;;
43744;SDS011;29359;53.048;8.732;2023-09-19T11:35:07;6.20;;;1.70;;
43744;SDS011;29359;53.048;8.732;2023-09-19T11:39:24;7.55;;;2.05;;
43744;SDS011;29359;53.048;8.732;2023-09-19T11:41:36;10.77;;;2.10;;
43744;SDS011;29359;53.048;8.732;2023-09-19T11:43:38;10.05;;;2.25;;
43744;SDS011;29359;53.048;8.732;2023-09-19T11:46:00;9.02;;;2.03;;
43744;SDS011;29359;53.048;8.732;2023-09-19T11:48:03;10.48;;;2.53;;
43744;SDS011;29359;53.048;8.732;2023-09-19T11:50:08;6.90;;;1.58;;
43744;SDS011;29359;53.048;8.732;2023-09-19T11:52:18;7.45;;;2.03;;
43744;SDS011;29359;53.048;8.732;2023-09-19T11:54:25;6.55;;;1.35;;
43744;SDS011;29359;53.048;8.732;2023-09-19T11:56:32;8.93;;;1.33;;
43744;SDS011;29359;53.048;8.732;2023-09-19T11:58:43;9.50;;;2.05;;
43744;SDS011;29359;53.048;8.732;2023-09-19T12:00:46;4.93;;;1.58;;
43744;SDS011;29359;53.048;8.732;2023-09-19T12:03:02;5.15;;;1.80;;
43744;SDS011;29359;53.048;8.732;2023-09-19T12:05:13;7.88;;;1.98;;
43744;SDS011;29359;53.048;8.732;2023-09-19T12:07:15;6.55;;;1.75;;
43744;SDS011;29359;53.048;8.732;2023-09-19T12:09:19;3.65;;;1.30;;
43744;SDS011;29359;53.048;8.732;2023-09-19T12:11:21;14.50;;;1.85;;
43744;SDS011;29359;53.048;8.732;2023-09-19T12:13:28;6.22;;;1.95;;
43744;SDS011;29359;53.048;8.732;2023-09-19T12:15:31;14.98;;;1.77;;
43744;SDS011;29359;53.048;8.732;2023-09-19T12:17:41;9.63;;;1.92;;
43744;SDS011;29359;53.048;8.732;2023-09-19T12:19:52;6.75;;;1.92;;
43744;SDS011;29359;53.048;8.732;2023-09-19T12:21:55;5.65;;;1.83;;
43744;SDS011;29359;53.048;8.732;2023-09-19T12:26:07;5.57;;;1.63;;
43744;SDS011;29359;53.048;8.732;2023-09-19T12:28:14;5.90;;;2.15;;
43744;SDS011;29359;53.048;8.732;2023-09-19T12:30:18;12.75;;;1.80;;
43744;SDS011;29359;53.048;8.732;2023-09-19T12:32:34;4.93;;;1.65;;
43744;SDS011;29359;53.048;8.732;2023-09-19T12:34:37;9.40;;;1.75;;
43744;SDS011;29359;53.048;8.732;2023-09-19T12:36:44;6.60;;;1.90;;
43744;SDS011;29359;53.048;8.732;2023-09-19T12:38:47;3.22;;;1.20;;
43744;SDS011;29359;53.048;8.732;2023-09-19T12:40:50;7.93;;;1.80;;
43744;SDS011;29359;53.048;8.732;2023-09-19T12:42:54;5.82;;;1.58;;
43744;SDS011;29359;53.048;8.732;2023-09-19T12:45:04;7.10;;;1.80;;
43744;SDS011;29359;53.048;8.732;2023-09-19T12:47:10;4.30;;;1.50;;
43744;SDS011;29359;53.048;8.732;2023-09-19T12:49:18;8.05;;;1.70;;
43744;SDS011;29359;53.048;8.732;2023-09-19T12:51:20;5.95;;;1.90;;
43744;SDS011;29359;53.048;8.732;2023-09-19T12:53:26;10.05;;;1.42;;
43744;SDS011;29359;53.048;8.732;2023-09-19T12:55:30;4.57;;;1.70;;
43744;SDS011;29359;53.048;8.732;2023-09-19T12:57:38;7.80;;;2.13;;
43744;SDS011;29359;53.048;8.732;2023-09-19T12:59:40;13.07;;;1.92;;